Time,TemperatureF,DewpointF,PressureIn,WindDirection,WindDirectionDegrees,WindSpeedMPH,WindSpeedGustMPH,Humidity,HourlyPrecipIn,Conditions,Clouds,dailyrainin,SoftwareType,DateUTC
2013-01-07 00:02:00,31.0,16.0,29.86,WSW,254,11.0,18.0,54,0.00,,,0.00,,2013-01-07 06:02:00,
2013-01-07 00:12:00,31.0,16.0,29.86,WSW,254,11.0,18.0,54,0.00,,,0.00,,2013-01-07 06:12:00,
2013-01-07 00:22:00,31.0,16.0,29.86,WSW,251,7.0,17.0,54,0.00,,,0.00,,2013-01-07 06:22:00,
2013-01-07 00:32:00,31.0,17.0,29.87,WSW,252,5.0,14.0,55,0.00,,,0.00,,2013-01-07 06:32:00,
2013-01-07 00:42:00,31.0,17.0,29.87,WSW,252,5.0,14.0,55,0.00,,,0.00,,2013-01-07 06:42:00,
2013-01-07 00:52:00,32.0,18.0,29.84,WSW,247,17.0,25.0,55,0.00,,,0.00,,2013-01-07 06:52:00,
2013-01-07 01:02:00,32.0,17.0,29.82,WSW,238,20.0,30.0,53,0.00,,,0.00,,2013-01-07 07:02:00,
2013-01-07 01:12:00,32.0,17.0,29.82,WSW,238,20.0,30.0,53,0.00,,,0.00,,2013-01-07 07:12:00,
2013-01-07 01:22:00,32.0,17.0,29.83,WSW,257,16.0,29.0,54,0.00,,,0.00,,2013-01-07 07:22:00,
2013-01-07 01:33:00,32.0,17.0,29.84,WSW,251,9.0,15.0,54,0.00,,,0.00,,2013-01-07 07:33:00,
2013-01-07 01:42:00,32.0,17.0,29.84,WSW,251,9.0,15.0,54,0.00,,,0.00,,2013-01-07 07:42:00,
2013-01-07 01:52:00,31.0,18.0,29.85,West,267,9.0,13.0,57,0.00,,,0.00,,2013-01-07 07:52:00,
2013-01-07 02:03:00,30.0,17.0,29.85,WSW,256,9.0,17.0,58,0.00,,,0.00,,2013-01-07 08:03:00,
2013-01-07 02:12:00,30.0,17.0,29.85,WSW,256,9.0,17.0,58,0.00,,,0.00,,2013-01-07 08:12:00,
2013-01-07 02:22:00,30.0,17.0,29.85,WSW,254,8.0,13.0,58,0.00,,,0.00,,2013-01-07 08:22:00,
2013-01-07 02:32:00,29.0,16.0,29.85,WSW,254,12.0,17.0,59,0.00,,,0.00,,2013-01-07 08:32:00,
2013-01-07 02:42:00,29.0,16.0,29.85,WSW,254,12.0,17.0,59,0.00,,,0.00,,2013-01-07 08:42:00,
2013-01-07 02:52:00,29.0,16.0,29.86,WSW,245,9.0,14.0,59,0.00,,,0.00,,2013-01-07 08:52:00,
2013-01-07 03:02:00,29.0,17.0,29.86,WSW,240,10.0,14.0,60,0.00,,,0.00,,2013-01-07 09:02:00,
2013-01-07 03:12:00,29.0,17.0,29.86,WSW,240,10.0,14.0,60,0.00,,,0.00,,2013-01-07 09:12:00,
2013-01-07 03:22:00,28.0,16.0,29.87,West,264,11.0,15.0,60,0.00,,,0.00,,2013-01-07 09:22:00,
2013-01-07 03:32:00,27.0,15.0,29.88,West,261,6.0,12.0,61,0.00,,,0.00,,2013-01-07 09:32:00,
2013-01-07 03:42:00,27.0,15.0,29.88,West,261,6.0,12.0,61,0.00,,,0.00,,2013-01-07 09:42:00,
2013-01-07 03:52:00,28.0,16.0,29.87,West,259,7.0,9.0,59,0.00,,,0.00,,2013-01-07 09:52:00,
2013-01-07 04:02:00,28.0,15.0,29.87,WSW,250,6.0,8.0,58,0.00,,,0.00,,2013-01-07 10:02:00,
2013-01-07 04:12:00,28.0,15.0,29.87,WSW,250,6.0,8.0,58,0.00,,,0.00,,2013-01-07 10:12:00,
2013-01-07 04:22:00,28.0,15.0,29.87,WSW,250,7.0,10.0,57,0.00,,,0.00,,2013-01-07 10:22:00,
2013-01-07 04:32:00,28.0,15.0,29.87,West,266,5.0,8.0,57,0.00,,,0.00,,2013-01-07 10:32:00,
2013-01-07 04:42:00,28.0,15.0,29.87,West,266,5.0,8.0,57,0.00,,,0.00,,2013-01-07 10:42:00,
2013-01-07 04:52:00,30.0,15.0,29.87,WSW,252,7.0,10.0,53,0.00,,,0.00,,2013-01-07 10:52:00,
2013-01-07 05:02:00,30.0,15.0,29.87,WSW,242,5.0,8.0,52,0.00,,,0.00,,2013-01-07 11:02:00,
2013-01-07 05:12:00,30.0,15.0,29.87,WSW,242,5.0,8.0,52,0.00,,,0.00,,2013-01-07 11:12:00,
2013-01-07 05:22:00,29.0,14.0,29.88,WSW,246,5.0,9.0,53,0.00,,,0.00,,2013-01-07 11:22:00,
2013-01-07 05:33:00,29.0,15.0,29.87,WSW,240,2.0,10.0,55,0.00,,,0.00,,2013-01-07 11:33:00,
2013-01-07 05:43:00,29.0,15.0,29.87,WSW,240,2.0,10.0,55,0.00,,,0.00,,2013-01-07 11:43:00,
2013-01-07 05:53:00,30.0,15.0,29.87,West,261,10.0,14.0,54,0.00,,,0.00,,2013-01-07 11:53:00,
2013-01-07 06:03:00,30.0,16.0,29.86,WSW,254,12.0,17.0,55,0.00,,,0.00,,2013-01-07 12:03:00,
2013-01-07 06:12:00,30.0,16.0,29.86,WSW,254,12.0,17.0,55,0.00,,,0.00,,2013-01-07 12:12:00,
2013-01-07 06:22:00,30.0,16.0,29.86,WSW,254,12.0,17.0,55,0.00,,,0.00,,2013-01-07 12:22:00,
2013-01-07 06:33:00,31.0,16.0,29.87,WSW,249,10.0,13.0,53,0.00,,,0.00,,2013-01-07 12:33:00,
2013-01-07 06:43:00,31.0,16.0,29.87,WSW,249,10.0,13.0,53,0.00,,,0.00,,2013-01-07 12:43:00,
2013-01-07 06:53:00,32.0,16.0,29.88,West,260,14.0,18.0,51,0.00,,,0.00,,2013-01-07 12:53:00,
2013-01-07 07:02:00,32.0,16.0,29.88,WSW,255,13.0,20.0,51,0.00,,,0.00,,2013-01-07 13:02:00,
2013-01-07 07:12:00,32.0,16.0,29.88,WSW,255,13.0,20.0,51,0.00,,,0.00,,2013-01-07 13:12:00,
2013-01-07 07:23:00,32.0,16.0,29.89,WSW,249,15.0,20.0,51,0.00,,,0.00,,2013-01-07 13:23:00,
2013-01-07 07:33:00,32.0,16.0,29.89,WSW,249,15.0,20.0,51,0.00,,,0.00,,2013-01-07 13:33:00,
2013-01-07 07:42:00,32.0,16.0,29.89,WSW,249,15.0,20.0,51,0.00,,,0.00,,2013-01-07 13:42:00,
2013-01-07 07:52:00,32.0,15.0,29.90,West,261,14.0,19.0,50,0.00,,,0.00,,2013-01-07 13:52:00,
2013-01-07 08:03:00,31.0,15.0,29.90,WSW,252,15.0,19.0,51,0.00,,,0.00,,2013-01-07 14:03:00,
2013-01-07 08:12:00,31.0,15.0,29.90,WSW,252,15.0,19.0,51,0.00,,,0.00,,2013-01-07 14:12:00,
2013-01-07 08:22:00,31.0,15.0,29.90,West,261,12.0,19.0,52,0.00,,,0.00,,2013-01-07 14:22:00,
2013-01-07 08:33:00,31.0,15.0,29.90,West,266,16.0,22.0,51,0.00,,,0.00,,2013-01-07 14:33:00,
2013-01-07 08:42:00,31.0,15.0,29.90,West,266,16.0,22.0,51,0.00,,,0.00,,2013-01-07 14:42:00,
2013-01-07 08:53:00,32.0,15.0,29.91,West,269,15.0,19.0,50,0.00,,,0.00,,2013-01-07 14:53:00,
2013-01-07 09:03:00,33.0,16.0,29.91,West,261,16.0,20.0,49,0.00,,,0.00,,2013-01-07 15:03:00,
2013-01-07 09:12:00,33.0,16.0,29.91,West,261,16.0,20.0,49,0.00,,,0.00,,2013-01-07 15:12:00,
2013-01-07 09:22:00,32.0,15.0,29.91,West,271,14.0,19.0,50,0.00,,,0.00,,2013-01-07 15:22:00,
2013-01-07 09:33:00,31.0,15.0,29.92,West,266,16.0,23.0,51,0.00,,,0.00,,2013-01-07 15:33:00,
2013-01-07 09:42:00,31.0,15.0,29.92,West,266,16.0,23.0,51,0.00,,,0.00,,2013-01-07 15:42:00,
2013-01-07 09:53:00,30.0,15.0,29.93,West,262,14.0,20.0,52,0.00,,,0.00,,2013-01-07 15:53:00,
2013-01-07 10:02:00,31.0,15.0,29.93,WSW,252,17.0,21.0,52,0.00,,,0.00,,2013-01-07 16:02:00,
2013-01-07 10:12:00,31.0,15.0,29.93,WSW,252,17.0,21.0,52,0.00,,,0.00,,2013-01-07 16:12:00,
2013-01-07 10:22:00,31.0,15.0,29.95,West,261,11.0,17.0,52,0.00,,,0.00,,2013-01-07 16:22:00,
2013-01-07 10:33:00,31.0,16.0,29.95,West,259,13.0,17.0,53,0.00,,,0.00,,2013-01-07 16:33:00,
2013-01-07 10:43:00,31.0,16.0,29.95,West,259,13.0,17.0,53,0.00,,,0.00,,2013-01-07 16:43:00,
2013-01-07 10:53:00,31.0,16.0,29.95,WSW,252,14.0,19.0,53,0.00,,,0.00,,2013-01-07 16:53:00,
2013-01-07 11:02:00,31.0,15.0,29.95,WSW,257,17.0,22.0,52,0.00,,,0.00,,2013-01-07 17:02:00,
2013-01-07 11:12:00,31.0,15.0,29.95,WSW,257,17.0,22.0,52,0.00,,,0.00,,2013-01-07 17:12:00,
2013-01-07 11:23:00,32.0,16.0,29.94,West,267,15.0,22.0,52,0.00,,,0.00,,2013-01-07 17:23:00,
2013-01-07 11:33:00,32.0,16.0,29.94,WSW,254,16.0,22.0,52,0.00,,,0.00,,2013-01-07 17:33:00,
2013-01-07 11:42:00,32.0,16.0,29.94,WSW,254,16.0,22.0,52,0.00,,,0.00,,2013-01-07 17:42:00,
2013-01-07 11:53:00,32.0,17.0,29.94,WSW,249,16.0,23.0,53,0.00,,,0.00,,2013-01-07 17:53:00,
2013-01-07 12:03:00,32.0,17.0,29.93,WSW,254,12.0,20.0,54,0.00,,,0.00,,2013-01-07 18:03:00,
2013-01-07 12:12:00,32.0,17.0,29.93,WSW,254,12.0,20.0,54,0.00,,,0.00,,2013-01-07 18:12:00,
2013-01-07 12:23:00,33.0,18.0,29.93,WSW,252,12.0,17.0,53,0.00,,,0.00,,2013-01-07 18:23:00,
2013-01-07 12:33:00,33.0,17.0,29.93,WSW,252,12.0,17.0,52,0.00,,,0.00,,2013-01-07 18:33:00,
2013-01-07 12:42:00,33.0,17.0,29.93,WSW,252,12.0,17.0,52,0.00,,,0.00,,2013-01-07 18:42:00,
2013-01-07 12:52:00,33.0,18.0,29.92,WSW,252,10.0,14.0,53,0.00,,,0.00,,2013-01-07 18:52:00,
2013-01-07 13:03:00,33.0,18.0,29.92,WSW,258,9.0,13.0,53,0.00,,,0.00,,2013-01-07 19:03:00,
2013-01-07 13:12:00,33.0,18.0,29.92,WSW,258,9.0,13.0,53,0.00,,,0.00,,2013-01-07 19:12:00,
2013-01-07 13:22:00,33.0,18.0,29.92,WSW,248,10.0,14.0,53,0.01,,,0.01,,2013-01-07 19:22:00,
2013-01-07 13:33:00,33.0,18.0,29.91,WSW,250,11.0,18.0,53,0.01,,,0.01,,2013-01-07 19:33:00,
2013-01-07 13:42:00,33.0,18.0,29.91,WSW,250,11.0,18.0,53,0.01,,,0.01,,2013-01-07 19:42:00,
2013-01-07 13:52:00,33.0,18.0,29.91,West,275,10.0,18.0,53,0.01,,,0.01,,2013-01-07 19:52:00,
2013-01-07 14:03:00,34.0,18.0,29.91,WSW,251,10.0,15.0,52,0.01,,,0.01,,2013-01-07 20:03:00,
2013-01-07 14:12:00,34.0,18.0,29.91,WSW,251,10.0,15.0,52,0.01,,,0.01,,2013-01-07 20:12:00,
2013-01-07 14:23:00,35.0,18.0,29.91,WSW,257,12.0,17.0,50,0.00,,,0.01,,2013-01-07 20:23:00,
2013-01-07 14:33:00,35.0,18.0,29.91,WSW,257,12.0,17.0,50,0.00,,,0.01,,2013-01-07 20:33:00,
2013-01-07 14:42:00,35.0,18.0,29.91,WSW,257,12.0,17.0,50,0.00,,,0.01,,2013-01-07 20:42:00,
2013-01-07 14:52:00,35.0,16.0,29.93,West,281,13.0,19.0,46,0.00,,,0.01,,2013-01-07 20:52:00,
2013-01-07 15:03:00,35.0,16.0,29.93,West,281,13.0,19.0,46,0.00,,,0.01,,2013-01-07 21:03:00,
2013-01-07 15:12:00,35.0,16.0,29.93,West,281,13.0,19.0,46,0.00,,,0.01,,2013-01-07 21:12:00,
2013-01-07 15:23:00,35.0,16.0,29.93,West,272,10.0,14.0,46,0.00,,,0.01,,2013-01-07 21:23:00,
2013-01-07 15:33:00,34.0,16.0,29.93,WSW,257,10.0,14.0,48,0.00,,,0.01,,2013-01-07 21:33:00,
2013-01-07 15:40:00,35.0,17.0,29.94,WSW,248,8.0,12.0,47,0.00,,,0.01,,2013-01-07 21:40:00,
2013-01-07 15:43:00,34.0,16.0,29.93,WSW,257,10.0,14.0,48,0.00,,,0.01,,2013-01-07 21:43:00,
2013-01-07 15:52:00,34.0,16.0,29.94,West,263,9.0,12.0,48,0.00,,,0.01,,2013-01-07 21:52:00,
2013-01-07 16:02:00,35.0,17.0,29.94,WSW,248,8.0,12.0,47,0.00,,,0.01,,2013-01-07 22:02:00,
2013-01-07 16:12:00,35.0,17.0,29.94,WSW,248,8.0,12.0,47,0.00,,,0.01,,2013-01-07 22:12:00,
2013-01-07 16:22:00,35.0,17.0,29.94,WSW,248,8.0,12.0,47,0.00,,,0.01,,2013-01-07 22:22:00,
2013-01-07 16:33:00,35.0,17.0,29.94,WSW,248,8.0,12.0,47,0.00,,,0.01,,2013-01-07 22:33:00,
2013-01-07 16:53:00,33.0,17.0,29.95,WSW,248,7.0,11.0,51,0.01,,,0.02,,2013-01-07 22:53:00,
2013-01-07 17:02:00,31.0,16.0,29.95,WSW,252,5.0,9.0,54,0.01,,,0.02,,2013-01-07 23:02:00,
2013-01-07 17:12:00,31.0,16.0,29.95,WSW,252,5.0,9.0,54,0.01,,,0.02,,2013-01-07 23:12:00,
2013-01-07 17:22:00,31.0,16.0,29.95,WSW,255,7.0,10.0,54,0.00,,,0.02,,2013-01-07 23:22:00,
2013-01-07 17:33:00,31.0,17.0,29.95,WSW,250,7.0,12.0,55,0.00,,,0.02,,2013-01-07 23:33:00,
2013-01-07 17:43:00,31.0,17.0,29.95,WSW,250,7.0,12.0,55,0.00,,,0.02,,2013-01-07 23:43:00,
2013-01-07 17:53:00,31.0,17.0,29.94,WSW,253,7.0,9.0,56,0.00,,,0.02,,2013-01-07 23:53:00,
2013-01-07 18:02:00,32.0,17.0,29.94,West,260,7.0,10.0,54,0.00,,,0.02,,2013-01-08 00:02:00,
2013-01-07 18:12:00,32.0,17.0,29.94,West,260,7.0,10.0,54,0.00,,,0.02,,2013-01-08 00:12:00,
2013-01-07 18:22:00,32.0,16.0,29.94,WSW,258,8.0,10.0,52,0.00,,,0.02,,2013-01-08 00:22:00,
2013-01-07 18:33:00,33.0,16.0,29.94,West,262,6.0,13.0,50,0.00,,,0.02,,2013-01-08 00:33:00,
2013-01-07 18:42:00,33.0,16.0,29.94,West,262,6.0,13.0,50,0.00,,,0.02,,2013-01-08 00:42:00,
2013-01-07 18:52:00,33.0,17.0,29.94,West,263,9.0,12.0,52,0.00,,,0.02,,2013-01-08 00:52:00,
2013-01-07 19:03:00,33.0,16.0,29.93,WSW,256,15.0,20.0,50,0.00,,,0.02,,2013-01-08 01:03:00,
2013-01-07 19:12:00,33.0,16.0,29.93,WSW,256,15.0,20.0,50,0.00,,,0.02,,2013-01-08 01:12:00,
2013-01-07 19:22:00,33.0,17.0,29.94,West,259,9.0,16.0,51,0.00,,,0.02,,2013-01-08 01:22:00,
2013-01-07 19:33:00,33.0,18.0,29.95,WSW,250,5.0,13.0,53,0.00,,,0.02,,2013-01-08 01:33:00,
2013-01-07 19:42:00,33.0,18.0,29.95,WSW,250,5.0,13.0,53,0.00,,,0.02,,2013-01-08 01:42:00,
2013-01-07 19:52:00,33.0,18.0,29.95,WNW,298,1.0,7.0,53,0.00,,,0.02,,2013-01-08 01:52:00,
2013-01-07 20:02:00,33.0,18.0,29.94,WSW,254,8.0,9.0,54,0.00,,,0.02,,2013-01-08 02:02:00,
2013-01-07 20:12:00,33.0,18.0,29.94,WSW,254,8.0,9.0,54,0.00,,,0.02,,2013-01-08 02:12:00,
2013-01-07 20:22:00,33.0,18.0,29.94,WSW,254,8.0,9.0,54,0.00,,,0.02,,2013-01-08 02:22:00,
2013-01-07 20:33:00,32.0,17.0,29.95,WNW,290,0.0,5.0,54,0.00,,,0.02,,2013-01-08 02:33:00,
2013-01-07 20:42:00,32.0,17.0,29.95,WNW,290,0.0,5.0,54,0.00,,,0.02,,2013-01-08 02:42:00,
2013-01-07 20:53:00,33.0,18.0,29.94,WSW,250,5.0,10.0,53,0.00,,,0.02,,2013-01-08 02:53:00,
2013-01-07 21:03:00,32.0,18.0,29.95,West,276,2.0,11.0,55,0.00,,,0.02,,2013-01-08 03:03:00,
2013-01-07 21:12:00,32.0,18.0,29.95,West,276,2.0,11.0,55,0.00,,,0.02,,2013-01-08 03:12:00,
2013-01-07 21:22:00,32.0,18.0,29.95,West,277,2.0,7.0,56,0.00,,,0.02,,2013-01-08 03:22:00,
2013-01-07 21:32:00,31.0,18.0,29.96,NNW,336,1.0,5.0,57,0.00,,,0.02,,2013-01-08 03:32:00,
2013-01-07 21:43:00,31.0,18.0,29.96,NNW,336,1.0,5.0,57,0.00,,,0.02,,2013-01-08 03:43:00,
2013-01-07 21:52:00,31.0,18.0,29.97,WNW,294,0.0,4.0,58,0.00,,,0.02,,2013-01-08 03:52:00,
2013-01-07 22:02:00,30.0,17.0,29.97,WNW,301,0.0,2.0,58,0.00,,,0.02,,2013-01-08 04:02:00,
2013-01-07 22:12:00,30.0,17.0,29.97,WNW,301,0.0,2.0,58,0.00,,,0.02,,2013-01-08 04:12:00,
2013-01-07 22:22:00,29.0,16.0,29.97,WNW,301,0.0,3.0,59,0.00,,,0.02,,2013-01-08 04:22:00,
2013-01-07 22:32:00,28.0,17.0,29.97,SSE,163,2.0,6.0,62,0.00,,,0.02,,2013-01-08 04:32:00,
2013-01-07 22:42:00,28.0,17.0,29.97,SSE,163,2.0,6.0,62,0.00,,,0.02,,2013-01-08 04:42:00,
2013-01-07 22:52:00,29.0,18.0,29.97,SSE,163,0.0,0.0,63,0.00,,,0.02,,2013-01-08 04:52:00,
2013-01-07 23:03:00,29.0,17.0,29.97,SSE,163,0.0,2.0,61,0.00,,,0.02,,2013-01-08 05:03:00,
2013-01-07 23:12:00,29.0,17.0,29.97,SSE,163,0.0,2.0,61,0.00,,,0.02,,2013-01-08 05:12:00,
2013-01-07 23:22:00,28.0,17.0,29.96,South,171,3.0,5.0,62,0.00,,,0.02,,2013-01-08 05:22:00,
2013-01-07 23:33:00,28.0,17.0,29.96,South,171,3.0,5.0,62,0.00,,,0.02,,2013-01-08 05:33:00,
2013-01-07 23:42:00,28.0,17.0,29.96,South,171,3.0,5.0,62,0.00,,,0.02,,2013-01-08 05:42:00,
2013-01-07 23:53:00,28.0,16.0,29.96,SSW,202,2.0,5.0,59,0.00,,,0.02,,2013-01-08 05:53:00,